Time;durP1;ratioP1;P1;durP2;ratioP2;P2;SDS_P1;SDS_P2;PMS_P1;PMS_P2;Temp;Humidity;BMP_temperature;BMP_pressure;BME280_temperature;BME280_humidity;BME280_pressure;Samples;Min_cycle;Max_cycle;Signal;HPM_P1;HPM_P2
2023/03/10 00:01:27;;;;;;;5.93;5.03;;;5.20;99.90;;;;;;5015744;28;20232;-61
2023/03/10 00:03:55;;;;;;;6.57;5.07;;;5.10;99.90;;;;;;5014358;28;20203;-61
2023/03/10 00:06:25;;;;;;;6.30;4.97;;;5.10;99.90;;;;;;5014176;28;20255;-58
2023/03/10 00:08:52;;;;;;;5.63;4.27;;;5.20;99.90;;;;;;5013043;28;20700;-59
2023/03/10 00:11:20;;;;;;;5.63;4.40;;;5.10;99.90;;;;;;5015892;28;20203;-59
2023/03/10 00:13:47;;;;;;;5.63;4.07;;;5.30;99.90;;;;;;5016504;28;20214;-59
2023/03/10 00:16:23;;;;;;;6.57;4.93;;;5.30;99.90;;;;;;5014291;28;20303;-59
2023/03/10 00:18:50;;;;;;;4.80;4.30;;;5.40;99.90;;;;;;5014181;28;20250;-59
2023/03/10 00:21:23;;;;;;;5.87;4.67;;;5.40;99.90;;;;;;5016895;28;20201;-59
2023/03/10 00:23:51;;;;;;;5.80;4.57;;;5.40;99.90;;;;;;5017325;28;20729;-61
2023/03/10 00:26:19;;;;;;;5.17;4.40;;;5.50;99.90;;;;;;5016127;28;20683;-59
2023/03/10 00:28:46;;;;;;;6.77;4.67;;;5.60;99.90;;;;;;5011381;28;20304;-59
2023/03/10 00:31:16;;;;;;;5.43;4.20;;;5.60;99.90;;;;;;5013909;28;20302;-59
2023/03/10 00:33:43;;;;;;;6.67;4.40;;;5.50;99.90;;;;;;4996486;28;20222;-59
2023/03/10 00:36:11;;;;;;;4.70;4.30;;;5.60;99.90;;;;;;5012099;28;20248;-59
2023/03/10 00:38:39;;;;;;;6.23;4.33;;;5.60;99.90;;;;;;5015510;28;20685;-59
2023/03/10 00:41:09;;;;;;;5.20;4.60;;;5.70;99.90;;;;;;5014675;28;20235;-59
2023/03/10 00:43:37;;;;;;;6.83;4.00;;;5.70;99.90;;;;;;5016051;28;20863;-59
2023/03/10 00:46:05;;;;;;;5.80;4.33;;;5.70;99.90;;;;;;5011435;28;20202;-57
2023/03/10 00:48:32;;;;;;;5.13;4.23;;;5.70;99.90;;;;;;5014981;28;20685;-57
2023/03/10 00:51:00;;;;;;;5.63;4.27;;;5.70;99.90;;;;;;4997505;28;20611;-57
2023/03/10 00:53:27;;;;;;;6.37;4.87;;;5.70;99.90;;;;;;5010503;28;20207;-57
2023/03/10 00:55:58;;;;;;;6.00;4.47;;;5.70;99.90;;;;;;5013265;28;20206;-57
2023/03/10 00:58:26;;;;;;;5.57;4.20;;;5.70;99.90;;;;;;5013780;28;20308;-57
2023/03/10 01:00:53;;;;;;;5.87;4.53;;;5.70;99.90;;;;;;5012764;28;20205;-57
2023/03/10 01:03:22;;;;;;;6.50;4.50;;;5.80;99.90;;;;;;5015075;28;20207;-57
2023/03/10 01:05:49;;;;;;;5.77;4.40;;;5.70;99.90;;;;;;5012431;28;20684;-57
2023/03/10 01:08:16;;;;;;;5.40;4.63;;;5.70;99.90;;;;;;5016208;28;20588;-57
2023/03/10 01:10:44;;;;;;;5.07;4.33;;;5.70;99.90;;;;;;5012831;28;20212;-60
2023/03/10 01:13:12;;;;;;;4.80;4.30;;;5.70;99.90;;;;;;5012869;28;20262;-61
2023/03/10 01:15:39;;;;;;;4.90;4.40;;;5.80;99.90;;;;;;5000726;28;20698;-63
2023/03/10 01:18:07;;;;;;;5.23;4.50;;;5.80;99.90;;;;;;5015753;28;20639;-60
2023/03/10 01:20:34;;;;;;;5.13;4.40;;;5.80;99.90;;;;;;5016091;28;20317;-60
2023/03/10 01:23:01;;;;;;;5.33;4.67;;;5.90;99.90;;;;;;5015597;28;20258;-59
2023/03/10 01:25:28;;;;;;;6.03;4.97;;;5.80;99.90;;;;;;5013257;28;20218;-60
2023/03/10 01:27:55;;;;;;;5.83;4.73;;;5.80;99.90;;;;;;5012569;28;20206;-59
2023/03/10 01:30:21;;;;;;;5.13;4.43;;;5.90;99.90;;;;;;4983161;28;20208;-59
2023/03/10 01:32:48;;;;;;;5.67;4.43;;;5.90;99.90;;;;;;5015414;28;20237;-60
2023/03/10 01:35:15;;;;;;;5.53;4.97;;;5.90;99.90;;;;;;5010388;28;20235;-59
2023/03/10 01:37:42;;;;;;;6.43;4.90;;;5.90;99.90;;;;;;5015188;28;20232;-59
2023/03/10 01:40:15;;;;;;;5.00;4.50;;;5.90;99.90;;;;;;5019857;28;20349;-59
2023/03/10 01:42:42;;;;;;;5.37;4.70;;;5.90;99.90;;;;;;5016783;28;20227;-59
2023/03/10 01:45:15;;;;;;;6.80;5.13;;;6.00;99.90;;;;;;5015545;28;20735;-59
2023/03/10 01:47:42;;;;;;;5.90;4.77;;;5.90;99.90;;;;;;5018623;28;20656;-59
2023/03/10 01:50:14;;;;;;;5.10;4.43;;;6.00;99.90;;;;;;5016321;28;20206;-59
2023/03/10 01:52:44;;;;;;;5.43;4.70;;;5.90;99.90;;;;;;5016737;28;20291;-58
2023/03/10 01:55:15;;;;;;;5.97;5.37;;;5.90;99.90;;;;;;5015240;28;20243;-58
2023/03/10 01:57:49;;;;;;;7.33;4.80;;;5.90;99.90;;;;;;5017855;28;20209;-58
2023/03/10 02:00:17;;;;;;;5.10;4.60;;;5.90;99.90;;;;;;5017744;28;20243;-57
2023/03/10 02:02:48;;;;;;;6.27;4.90;;;6.00;99.90;;;;;;5018943;28;20759;-58
2023/03/10 02:05:15;;;;;;;5.67;4.80;;;5.90;99.90;;;;;;5015775;28;20200;-57
2023/03/10 02:07:42;;;;;;;5.37;4.63;;;5.90;99.90;;;;;;5002217;28;20204;-57
2023/03/10 02:10:11;;;;;;;5.23;4.67;;;5.90;99.90;;;;;;5018385;28;20644;-57
2023/03/10 02:12:39;;;;;;;5.93;5.03;;;5.90;99.90;;;;;;5018208;28;20208;-57
2023/03/10 02:15:07;;;;;;;6.87;6.03;;;6.00;99.90;;;;;;5017095;28;20584;-57
2023/03/10 02:17:34;;;;;;;5.30;4.77;;;6.10;99.90;;;;;;5015696;28;20229;-57
2023/03/10 02:20:25;;;;;;;5.53;5.00;;;6.00;99.90;;;;;;5016402;28;20236;-58
2023/03/10 02:22:52;;;;;;;5.63;4.57;;;6.00;99.90;;;;;;5018539;28;20284;-57
2023/03/10 02:25:27;;;;;;;5.93;5.13;;;6.10;99.90;;;;;;5016518;28;20199;-57
2023/03/10 02:27:55;;;;;;;5.80;4.93;;;6.00;99.90;;;;;;5021781;28;20199;-58
2023/03/10 02:30:34;;;;;;;9.37;5.50;;;5.90;99.90;;;;;;5003120;28;20796;-57
2023/03/10 02:33:12;;;;;;;5.37;4.53;;;6.10;99.90;;;;;;5015969;28;20205;-58
2023/03/10 02:35:39;;;;;;;7.03;4.90;;;6.10;99.90;;;;;;5000518;28;20292;-57
2023/03/10 02:38:06;;;;;;;5.37;4.83;;;6.10;99.90;;;;;;5001837;28;20203;-57
2023/03/10 02:40:39;;;;;;;5.47;4.90;;;6.00;99.90;;;;;;5016009;28;20290;-57
2023/03/10 02:43:17;;;;;;;5.60;4.57;;;6.00;99.90;;;;;;5016121;28;20208;-57
2023/03/10 02:45:45;;;;;;;6.03;4.83;;;5.90;99.90;;;;;;5015856;28;20684;-57
2023/03/10 02:48:17;;;;;;;6.37;5.53;;;5.80;99.90;;;;;;5017687;28;20210;-57
2023/03/10 02:50:48;;;;;;;6.27;4.87;;;5.80;99.90;;;;;;5018148;28;20804;-57
2023/03/10 02:53:18;;;;;;;5.77;4.97;;;5.80;99.90;;;;;;5001150;28;20202;-57
2023/03/10 02:55:45;;;;;;;6.73;5.23;;;5.80;99.90;;;;;;5016770;28;20775;-58
2023/03/10 02:58:12;;;;;;;6.20;5.13;;;5.80;99.90;;;;;;5014102;28;20763;-57
2023/03/10 03:00:42;;;;;;;6.80;5.23;;;5.90;99.90;;;;;;5016416;28;20270;-58
2023/03/10 03:03:10;;;;;;;6.93;5.60;;;6.00;99.90;;;;;;5011890;28;20201;-57
2023/03/10 03:05:37;;;;;;;6.13;5.07;;;6.00;99.90;;;;;;5016665;28;20209;-58
2023/03/10 03:08:06;;;;;;;6.00;4.97;;;5.90;99.90;;;;;;5017582;28;20239;-61
2023/03/10 03:10:33;;;;;;;6.53;5.67;;;5.90;99.90;;;;;;5013746;28;20217;-61
2023/03/10 03:13:01;;;;;;;6.27;5.23;;;5.90;99.90;;;;;;5016853;28;20291;-61
2023/03/10 03:15:27;;;;;;;5.73;4.90;;;5.80;99.90;;;;;;4998127;28;20202;-62
2023/03/10 03:17:56;;;;;;;7.17;5.60;;;5.90;99.90;;;;;;5016160;28;20261;-61
2023/03/10 03:20:25;;;;;;;6.87;5.30;;;5.90;99.90;;;;;;5014410;28;20272;-61
2023/03/10 03:22:51;;;;;;;6.57;5.40;;;5.90;99.90;;;;;;5017256;28;20765;-61
2023/03/10 03:25:20;;;;;;;6.37;5.20;;;6.00;99.90;;;;;;5015730;28;20650;-61
2023/03/10 03:27:48;;;;;;;6.70;5.53;;;6.10;99.90;;;;;;5009931;28;20201;-61
2023/03/10 03:30:18;;;;;;;7.00;5.30;;;6.00;99.90;;;;;;5017098;28;20916;-59
2023/03/10 03:32:48;;;;;;;6.00;5.10;;;6.10;99.90;;;;;;5015490;28;20261;-59
2023/03/10 03:35:18;;;;;;;6.37;5.27;;;6.00;99.90;;;;;;5013622;28;20794;-59
2023/03/10 03:37:45;;;;;;;7.23;5.33;;;6.10;99.90;;;;;;5017243;28;20298;-59
2023/03/10 03:40:13;;;;;;;6.13;5.10;;;6.10;99.90;;;;;;4999576;28;20302;-59
2023/03/10 03:42:42;;;;;;;7.17;5.70;;;6.10;99.90;;;;;;5014228;28;20569;-59
2023/03/10 03:45:10;;;;;;;6.73;4.87;;;6.10;99.90;;;;;;5015656;28;20406;-59
2023/03/10 03:47:37;;;;;;;5.83;5.20;;;6.10;99.90;;;;;;5017729;28;20315;-59
2023/03/10 03:50:06;;;;;;;7.90;5.93;;;6.20;99.90;;;;;;5013607;28;20283;-59
2023/03/10 03:52:33;;;;;;;6.10;5.23;;;6.10;99.90;;;;;;5018378;28;20632;-59
2023/03/10 03:55:00;;;;;;;5.87;5.13;;;6.20;99.90;;;;;;5015168;28;20550;-61
2023/03/10 03:57:26;;;;;;;6.47;5.77;;;6.10;99.90;;;;;;5017493;28;20206;-61
2023/03/10 03:59:53;;;;;;;8.10;5.63;;;6.20;99.90;;;;;;4997613;28;20322;-61
2023/03/10 04:02:20;;;;;;;8.00;6.10;;;6.20;99.90;;;;;;5013868;28;20244;-61
2023/03/10 04:04:47;;;;;;;6.93;5.30;;;6.20;99.90;;;;;;5012971;28;20219;-61
2023/03/10 04:07:15;;;;;;;7.30;5.40;;;6.20;99.90;;;;;;5018014;28;20274;-61
2023/03/10 04:09:42;;;;;;;7.73;5.77;;;6.30;99.90;;;;;;5013777;28;20209;-61
2023/03/10 04:12:09;;;;;;;7.30;5.77;;;6.30;99.90;;;;;;5014797;28;20659;-61
2023/03/10 04:14:37;;;;;;;9.87;5.90;;;6.30;99.90;;;;;;5013806;28;20208;-62
2023/03/10 04:17:04;;;;;;;7.23;6.03;;;6.30;99.90;;;;;;5016687;28;20324;-61
2023/03/10 04:19:31;;;;;;;6.40;5.33;;;6.20;99.90;;;;;;5014778;28;20236;-61
2023/03/10 04:21:58;;;;;;;10.13;6.23;;;6.30;99.90;;;;;;5019073;28;20268;-61
2023/03/10 04:24:25;;;;;;;7.20;6.00;;;6.30;99.90;;;;;;5016231;28;20613;-62
2023/03/10 04:26:51;;;;;;;7.03;5.60;;;6.30;99.90;;;;;;5015220;28;20255;-62
2023/03/10 04:29:23;;;;;;;7.27;6.23;;;6.30;99.90;;;;;;5014331;28;20208;-61
2023/03/10 04:31:50;;;;;;;7.57;6.03;;;6.30;99.90;;;;;;5016022;28;20659;-62
2023/03/10 04:34:31;;;;;;;8.30;6.30;;;6.30;99.90;;;;;;4996616;28;20315;-62
2023/03/10 04:36:58;;;;;;;7.77;5.80;;;6.30;99.90;;;;;;5014999;28;20200;-64
2023/03/10 04:39:25;;;;;;;9.43;7.20;;;6.30;99.90;;;;;;5015343;28;20248;-61
2023/03/10 04:41:52;;;;;;;6.57;5.63;;;6.40;99.90;;;;;;5014924;28;20211;-61
2023/03/10 04:44:19;;;;;;;7.87;6.30;;;6.40;99.90;;;;;;4648841;28;9999668;-62
2023/03/10 04:46:56;;;;;;;7.70;6.30;;;6.40;99.90;;;;;;5007249;28;20658;-61
2023/03/10 04:49:23;;;;;;;7.10;5.83;;;6.40;99.90;;;;;;5009277;28;20624;-61
2023/03/10 04:51:50;;;;;;;8.50;5.70;;;6.30;99.90;;;;;;5010602;28;20628;-61
2023/03/10 04:54:17;;;;;;;7.93;6.10;;;6.30;99.90;;;;;;5010655;28;20216;-61
2023/03/10 04:56:44;;;;;;;8.93;5.83;;;6.30;99.90;;;;;;5013264;28;20207;-61
2023/03/10 04:59:11;;;;;;;10.27;7.37;;;6.40;99.90;;;;;;5009469;28;20346;-61
2023/03/10 05:01:38;;;;;;;7.63;5.67;;;6.30;99.90;;;;;;5010940;28;20196;-61
2023/03/10 05:04:05;;;;;;;6.30;5.53;;;6.30;99.90;;;;;;5013845;28;20684;-62
2023/03/10 05:06:32;;;;;;;6.43;5.73;;;6.40;99.90;;;;;;5010240;28;20214;-61
2023/03/10 05:09:01;;;;;;;8.00;6.30;;;6.50;99.90;;;;;;5014877;28;20294;-62
2023/03/10 05:11:28;;;;;;;8.17;6.30;;;6.50;99.90;;;;;;5012145;28;20375;-62
2023/03/10 05:13:55;;;;;;;12.70;7.03;;;6.40;99.90;;;;;;5016719;28;20290;-61
2023/03/10 05:16:22;;;;;;;7.30;6.07;;;6.30;99.90;;;;;;5014472;28;20208;-62
2023/03/10 05:18:49;;;;;;;9.77;7.40;;;6.30;99.90;;;;;;5000565;28;20232;-62
2023/03/10 05:21:16;;;;;;;9.33;5.87;;;6.30;99.90;;;;;;5016578;28;20227;-62
2023/03/10 05:23:43;;;;;;;11.70;6.90;;;6.40;99.90;;;;;;5018929;28;20204;-62
2023/03/10 05:26:10;;;;;;;9.47;6.63;;;6.50;99.90;;;;;;5013628;28;20290;-62
2023/03/10 05:28:37;;;;;;;10.47;6.67;;;6.40;99.90;;;;;;5013951;28;20650;-62
2023/03/10 05:31:14;;;;;;;10.17;6.03;;;6.30;99.90;;;;;;5017038;28;20288;-62
2023/03/10 05:33:41;;;;;;;9.63;6.40;;;6.40;99.90;;;;;;5018934;28;20637;-62
2023/03/10 05:36:11;;;;;;;7.80;6.47;;;6.50;99.90;;;;;;5017960;28;20350;-61
2023/03/10 05:38:38;;;;;;;7.97;6.50;;;6.60;99.90;;;;;;5017810;28;20200;-63
2023/03/10 05:41:07;;;;;;;13.57;6.53;;;6.50;99.90;;;;;;5018003;28;20256;-62
2023/03/10 05:43:34;;;;;;;8.57;6.83;;;6.50;99.90;;;;;;5016932;28;20243;-62
2023/03/10 05:46:01;;;;;;;9.50;6.27;;;6.50;99.90;;;;;;5016790;28;20242;-60
2023/03/10 05:48:28;;;;;;;8.63;6.60;;;6.60;99.90;;;;;;5018879;28;20228;-61
2023/03/10 05:50:59;;;;;;;11.93;6.53;;;6.60;99.90;;;;;;5001458;28;20246;-60
2023/03/10 05:53:26;;;;;;;9.80;6.50;;;6.70;99.90;;;;;;5016441;28;20656;-60
2023/03/10 05:55:54;;;;;;;9.33;6.27;;;6.60;99.90;;;;;;5017606;28;20333;-61
2023/03/10 05:58:23;;;;;;;12.87;7.23;;;6.70;99.90;;;;;;5017028;28;20204;-57
2023/03/10 06:00:50;;;;;;;9.03;7.23;;;6.70;99.90;;;;;;5015011;28;20476;-60
2023/03/10 06:03:17;;;;;;;9.33;6.70;;;6.70;99.90;;;;;;5000614;28;20558;-60
2023/03/10 06:05:45;;;;;;;9.63;6.90;;;6.60;99.90;;;;;;5018867;28;20209;-60
2023/03/10 06:08:11;;;;;;;9.57;7.23;;;6.60;99.90;;;;;;5016721;28;20334;-60
2023/03/10 06:10:39;;;;;;;10.23;7.00;;;6.60;99.90;;;;;;5006210;28;20203;-60
2023/03/10 06:13:05;;;;;;;14.27;7.80;;;6.60;99.90;;;;;;5016814;28;20303;-60
2023/03/10 06:15:32;;;;;;;10.20;6.83;;;6.70;99.90;;;;;;5016003;28;20248;-60
2023/03/10 06:17:59;;;;;;;11.10;6.57;;;6.80;99.90;;;;;;5017584;28;20240;-63
2023/03/10 06:20:26;;;;;;;10.43;6.90;;;6.70;99.90;;;;;;5018637;28;20228;-62
2023/03/10 06:22:53;;;;;;;10.53;6.50;;;6.70;99.90;;;;;;5019582;28;20564;-59
2023/03/10 06:25:20;;;;;;;10.33;7.20;;;6.60;99.90;;;;;;5017618;28;20201;-60
2023/03/10 06:27:47;;;;;;;9.63;6.53;;;6.60;99.90;;;;;;5021424;28;20251;-60
2023/03/10 06:30:15;;;;;;;9.40;6.30;;;6.70;99.90;;;;;;4997107;28;20637;-59
2023/03/10 06:32:42;;;;;;;8.17;6.30;;;6.70;99.90;;;;;;5019622;28;20262;-59
2023/03/10 06:35:12;;;;;;;12.20;7.23;;;6.60;99.90;;;;;;5018128;28;20225;-59
2023/03/10 06:37:39;;;;;;;11.47;7.27;;;6.60;99.90;;;;;;5018538;28;20295;-60
2023/03/10 06:40:08;;;;;;;8.97;7.13;;;6.70;99.90;;;;;;5019227;28;20222;-60
2023/03/10 06:42:35;;;;;;;11.73;7.47;;;6.70;99.90;;;;;;5018597;28;20243;-60
2023/03/10 06:45:02;;;;;;;10.80;7.03;;;6.70;99.90;;;;;;5015547;28;20586;-60
2023/03/10 06:47:29;;;;;;;10.13;7.10;;;6.60;99.90;;;;;;5017332;28;22416;-60
2023/03/10 06:49:57;;;;;;;11.83;7.43;;;6.60;99.90;;;;;;5012527;28;20263;-60
2023/03/10 06:52:24;;;;;;;12.77;7.80;;;6.60;99.90;;;;;;5017089;28;20193;-60
2023/03/10 06:54:51;;;;;;;10.63;7.50;;;6.70;99.90;;;;;;5008334;28;20197;-61
2023/03/10 06:57:18;;;;;;;9.87;6.80;;;6.60;99.90;;;;;;5016317;28;20639;-60
2023/03/10 06:59:46;;;;;;;9.93;6.33;;;6.50;99.90;;;;;;5012642;28;20631;-60
2023/03/10 07:02:13;;;;;;;10.37;6.43;;;6.60;99.90;;;;;;5008719;28;20210;-60
2023/03/10 07:04:40;;;;;;;8.07;6.20;;;6.60;99.90;;;;;;5003681;28;20197;-60
2023/03/10 07:07:07;;;;;;;9.83;6.80;;;6.60;99.90;;;;;;5016184;28;20356;-59
2023/03/10 07:09:34;;;;;;;10.73;6.37;;;6.60;99.90;;;;;;5005234;28;20568;-60
2023/03/10 07:12:01;;;;;;;8.37;6.40;;;6.50;99.90;;;;;;5015514;28;20207;-60
2023/03/10 07:14:28;;;;;;;9.53;6.57;;;6.50;99.90;;;;;;5014905;28;20263;-60
2023/03/10 07:16:55;;;;;;;8.67;6.53;;;6.60;99.90;;;;;;5017927;28;20709;-60
2023/03/10 07:19:22;;;;;;;8.40;6.13;;;6.50;99.90;;;;;;5015514;28;20246;-60
2023/03/10 07:21:49;;;;;;;8.30;6.33;;;6.60;99.90;;;;;;5017335;28;20251;-60
2023/03/10 07:24:16;;;;;;;8.10;5.90;;;6.60;99.90;;;;;;5006028;28;20283;-60
2023/03/10 07:26:44;;;;;;;8.03;6.00;;;6.70;99.90;;;;;;5018131;28;20197;-60
2023/03/10 07:29:11;;;;;;;8.20;6.07;;;6.70;99.90;;;;;;5018460;28;20568;-60
2023/03/10 07:31:37;;;;;;;9.00;6.20;;;6.70;99.90;;;;;;5018680;28;20236;-60
2023/03/10 07:34:04;;;;;;;8.70;5.50;;;6.70;99.90;;;;;;5007048;28;20208;-60
2023/03/10 07:36:31;;;;;;;10.37;6.57;;;6.80;99.90;;;;;;5014746;28;22996;-60
2023/03/10 07:38:58;;;;;;;8.60;6.23;;;6.90;99.90;;;;;;5013430;28;20313;-60
2023/03/10 07:41:25;;;;;;;8.07;5.20;;;6.80;99.90;;;;;;5011194;28;20217;-60
2023/03/10 07:43:53;;;;;;;8.57;6.37;;;6.80;99.90;;;;;;5018332;28;20676;-60
2023/03/10 07:46:20;;;;;;;7.67;5.77;;;6.80;99.90;;;;;;5018634;28;20287;-60
2023/03/10 07:48:48;;;;;;;8.27;6.23;;;6.90;99.90;;;;;;5017915;28;20206;-60
2023/03/10 07:51:15;;;;;;;7.70;6.13;;;6.90;99.90;;;;;;5002695;28;20268;-59
2023/03/10 07:53:41;;;;;;;10.43;6.80;;;6.90;99.90;;;;;;5020193;28;20233;-60
2023/03/10 07:56:10;;;;;;;9.67;5.23;;;7.00;99.90;;;;;;5017022;28;20292;-60
2023/03/10 07:58:38;;;;;;;9.63;6.00;;;7.00;99.90;;;;;;5014564;28;20254;-60
2023/03/10 08:01:06;;;;;;;10.23;6.30;;;7.00;99.90;;;;;;5010119;28;20220;-62
2023/03/10 08:03:33;;;;;;;10.97;6.30;;;7.10;99.90;;;;;;5013166;28;20198;-60
2023/03/10 08:06:04;;;;;;;9.50;6.20;;;7.10;99.90;;;;;;5014032;28;20842;-60
2023/03/10 08:08:31;;;;;;;10.60;6.23;;;7.20;99.90;;;;;;5014140;28;20208;-60
2023/03/10 08:11:03;;;;;;;9.70;7.07;;;7.10;99.90;;;;;;5015208;28;20236;-60
2023/03/10 08:13:30;;;;;;;7.70;5.83;;;7.20;99.90;;;;;;5019088;28;20205;-60
2023/03/10 08:16:01;;;;;;;9.50;6.00;;;7.10;99.90;;;;;;4996970;28;20659;-60
2023/03/10 08:18:30;;;;;;;9.60;6.60;;;7.20;99.90;;;;;;5019074;28;20257;-60
2023/03/10 08:20:57;;;;;;;10.13;6.57;;;7.30;99.90;;;;;;5016689;28;20652;-60
2023/03/10 08:23:25;;;;;;;9.67;6.57;;;7.30;99.90;;;;;;5015488;28;20339;-60
2023/03/10 08:25:51;;;;;;;10.33;6.17;;;7.40;99.90;;;;;;5019903;28;20573;-60
2023/03/10 08:28:18;;;;;;;9.83;6.43;;;7.60;99.90;;;;;;5019244;28;20212;-60
2023/03/10 08:30:45;;;;;;;8.27;6.53;;;7.60;99.90;;;;;;5017903;28;20366;-60
2023/03/10 08:33:30;;;;;;;9.87;6.83;;;7.70;99.90;;;;;;5015870;28;20205;-59
2023/03/10 08:36:02;;;;;;;9.73;6.47;;;7.80;99.90;;;;;;5014982;28;20229;-59
2023/03/10 08:38:29;;;;;;;9.23;6.50;;;7.90;99.90;;;;;;5018018;28;20215;-60
2023/03/10 08:40:56;;;;;;;8.87;6.30;;;7.90;99.90;;;;;;5017040;28;20215;-59
2023/03/10 08:43:23;;;;;;;9.30;6.33;;;8.00;99.90;;;;;;5019352;28;20716;-59
2023/03/10 08:45:50;;;;;;;9.53;6.83;;;8.20;99.90;;;;;;5014536;28;20696;-60
2023/03/10 08:48:17;;;;;;;11.37;7.23;;;8.50;99.90;;;;;;5017575;28;20786;-59
2023/03/10 08:50:44;;;;;;;9.97;7.40;;;8.90;99.90;;;;;;5016509;28;20277;-59
2023/03/10 08:53:11;;;;;;;10.80;6.97;;;9.00;99.90;;;;;;5015390;28;20227;-60
2023/03/10 08:55:38;;;;;;;9.23;7.33;;;9.30;99.90;;;;;;5014562;28;20266;-60
2023/03/10 08:58:05;;;;;;;10.13;7.43;;;9.10;99.90;;;;;;5015433;28;20262;-62
2023/03/10 09:00:32;;;;;;;11.13;6.37;;;9.10;99.90;;;;;;5014207;28;20908;-59
2023/03/10 09:02:58;;;;;;;11.30;7.37;;;9.00;99.90;;;;;;5015836;28;20252;-61
2023/03/10 09:05:27;;;;;;;9.40;6.30;;;8.90;99.90;;;;;;5015104;28;20294;-60
2023/03/10 09:07:54;;;;;;;13.07;6.60;;;8.80;99.90;;;;;;5012170;28;20204;-60
2023/03/10 09:10:21;;;;;;;11.37;7.30;;;8.80;99.90;;;;;;5016048;28;20202;-60
2023/03/10 09:12:48;;;;;;;15.17;7.77;;;8.90;99.90;;;;;;5014117;28;20256;-60
2023/03/10 09:15:15;;;;;;;9.27;6.63;;;8.90;99.90;;;;;;5014180;28;20205;-60
2023/03/10 09:17:42;;;;;;;10.27;6.90;;;8.90;99.90;;;;;;5013968;28;20298;-61
2023/03/10 09:20:09;;;;;;;10.57;6.80;;;8.90;99.90;;;;;;5005506;28;20295;-60
2023/03/10 09:22:36;;;;;;;13.70;7.43;;;9.00;99.90;;;;;;5015847;28;20237;-60
2023/03/10 09:25:03;;;;;;;10.50;6.70;;;9.00;99.90;;;;;;5014610;28;20652;-60
2023/03/10 09:27:30;;;;;;;14.47;7.90;;;9.10;99.90;;;;;;5013692;28;20224;-60
2023/03/10 09:29:57;;;;;;;13.53;7.87;;;9.20;99.90;;;;;;5014329;28;20202;-60
2023/03/10 09:32:27;;;;;;;10.27;6.37;;;9.20;99.90;;;;;;4999856;28;20259;-60
2023/03/10 09:34:54;;;;;;;11.47;6.43;;;9.30;99.90;;;;;;4995787;28;20712;-59
2023/03/10 09:37:21;;;;;;;11.87;7.17;;;9.30;99.90;;;;;;5015372;28;20252;-61
2023/03/10 09:39:47;;;;;;;13.43;7.10;;;9.40;99.90;;;;;;5016606;28;20229;-59
2023/03/10 09:42:24;;;;;;;10.20;7.17;;;9.50;99.90;;;;;;5010556;28;21092;-59
2023/03/10 09:45:32;;;;;;;13.07;8.03;;;9.80;99.90;;;;;;5008808;28;20209;-61
2023/03/10 09:48:20;;;;;;;12.03;7.30;;;10.10;99.90;;;;;;5010662;28;20209;-59
2023/03/10 09:50:51;;;;;;;11.30;6.80;;;10.90;99.90;;;;;;5007973;28;20264;-59
2023/03/10 09:53:28;;;;;;;11.70;7.53;;;11.10;99.90;;;;;;5015332;28;20224;-59
2023/03/10 09:55:56;;;;;;;11.07;7.23;;;11.00;99.90;;;;;;5016227;28;20236;-59
2023/03/10 09:58:45;;;;;;;11.70;7.37;;;10.90;99.90;;;;;;5016257;28;20283;-60
2023/03/10 10:01:22;;;;;;;10.27;7.47;;;11.00;99.90;;;;;;5016611;28;20304;-59
2023/03/10 10:04:12;;;;;;;11.47;6.70;;;10.90;99.90;;;;;;5017303;28;20537;-65
2023/03/10 10:06:43;;;;;;;12.10;5.20;;;10.80;99.90;;;;;;5020665;28;20220;-59
2023/03/10 10:09:27;;;;;;;10.40;4.60;;;10.60;99.90;;;;;;5020632;28;20284;-59
2023/03/10 10:11:55;;;;;;;5.63;2.37;;;10.70;99.90;;;;;;5016975;28;20327;-59
2023/03/10 10:14:23;;;;;;;4.90;2.00;;;10.70;99.90;;;;;;5017957;28;20214;-59
2023/03/10 10:17:15;;;;;;;7.20;2.07;;;10.80;99.90;;;;;;5019396;28;20221;-59
2023/03/10 10:19:46;;;;;;;5.13;1.80;;;10.70;99.90;;;;;;5020554;28;20228;-59
2023/03/10 10:22:30;;;;;;;6.73;1.70;;;10.70;99.90;;;;;;5021140;28;20283;-59
2023/03/10 10:25:08;;;;;;;4.33;1.30;;;10.70;99.90;;;;;;5020699;28;20676;-59
2023/03/10 10:27:36;;;;;;;8.37;1.90;;;10.60;99.90;;;;;;5004842;28;20195;-59
2023/03/10 10:30:27;;;;;;;6.87;1.70;;;10.70;99.90;;;;;;5018691;28;20210;-59
2023/03/10 10:33:02;;;;;;;7.13;1.63;;;10.70;99.90;;;;;;5019419;28;20320;-59
2023/03/10 10:35:32;;;;;;;5.47;1.23;;;10.50;99.90;;;;;;5000438;28;20456;-59
2023/03/10 10:38:12;;;;;;;9.10;1.40;;;10.50;99.90;;;;;;5001258;28;20215;-59
2023/03/10 10:40:48;;;;;;;5.70;1.40;;;10.30;99.90;;;;;;5017183;28;20235;-59
2023/03/10 10:43:20;;;;;;;4.83;1.07;;;10.30;99.90;;;;;;5013713;28;20283;-59
2023/03/10 10:46:03;;;;;;;6.77;1.53;;;10.30;99.90;;;;;;5016874;28;20257;-59
2023/03/10 10:48:47;;;;;;;7.00;1.87;;;10.20;99.90;;;;;;5018813;28;20304;-60
2023/03/10 10:51:33;;;;;;;4.90;1.47;;;10.10;99.90;;;;;;5014847;28;20234;-59
2023/03/10 10:54:19;;;;;;;6.57;1.43;;;10.20;99.90;;;;;;5015896;28;20288;-60
2023/03/10 10:57:19;;;;;;;4.87;1.27;;;10.10;99.90;;;;;;5013661;28;20214;-60
2023/03/10 10:59:46;;;;;;;5.33;2.50;;;10.20;99.90;;;;;;4996176;28;20216;-60
2023/03/10 11:02:31;;;;;;;7.60;1.80;;;10.20;99.90;;;;;;5004521;28;20251;-59
2023/03/10 11:05:31;;;;;;;3.80;1.03;;;10.20;99.90;;;;;;5015052;28;20645;-60
2023/03/10 11:08:18;;;;;;;5.90;1.23;;;10.30;99.90;;;;;;4982136;28;20207;-60
2023/03/10 11:10:53;;;;;;;4.63;1.27;;;10.40;99.90;;;;;;5016971;28;20201;-60
2023/03/10 11:13:38;;;;;;;2.73;1.27;;;10.50;99.90;;;;;;5014041;28;20207;-60
2023/03/10 11:16:16;;;;;;;2.70;1.03;;;10.70;99.90;;;;;;5017252;28;20295;-60
2023/03/10 11:18:54;;;;;;;7.23;4.47;;;10.70;99.90;;;;;;5016347;28;20233;-59
2023/03/10 11:21:30;;;;;;;9.27;5.70;;;10.40;99.90;;;;;;5016221;28;20242;-59
2023/03/10 11:24:00;;;;;;;10.83;6.57;;;9.80;99.90;;;;;;5018435;28;20207;-59
2023/03/10 11:26:44;;;;;;;10.83;6.10;;;9.60;99.90;;;;;;5016400;28;20710;-59
2023/03/10 11:29:28;;;;;;;8.87;5.97;;;9.30;99.90;;;;;;5015983;28;20295;-60
2023/03/10 11:32:14;;;;;;;7.93;5.37;;;9.20;99.90;;;;;;5018392;28;20200;-61
2023/03/10 11:34:48;;;;;;;8.70;5.43;;;9.00;99.90;;;;;;5016299;28;20587;-59
2023/03/10 11:37:28;;;;;;;8.57;6.50;;;8.70;99.90;;;;;;5011766;28;20210;-58
2023/03/10 11:40:10;;;;;;;6.87;5.53;;;8.50;99.90;;;;;;5016709;28;20207;-58
2023/03/10 11:42:45;;;;;;;6.20;5.00;;;8.60;99.90;;;;;;5016170;28;20249;-59
2023/03/10 11:45:37;;;;;;;7.93;5.00;;;8.30;99.90;;;;;;5010721;28;20201;-59
2023/03/10 11:48:37;;;;;;;7.13;5.20;;;8.20;99.90;;;;;;5015688;28;20207;-59
2023/03/10 11:51:04;;;;;;;6.47;5.03;;;8.10;99.90;;;;;;5014273;28;20207;-59
2023/03/10 11:53:43;;;;;;;6.00;4.60;;;8.10;99.90;;;;;;5015114;28;20206;-59
2023/03/10 11:56:13;;;;;;;6.80;4.83;;;7.90;99.90;;;;;;5015158;28;20205;-60
2023/03/10 11:58:52;;;;;;;7.70;4.40;;;7.80;99.90;;;;;;5015781;28;20659;-57
2023/03/10 12:01:57;;;;;;;5.27;3.37;;;7.60;99.90;;;;;;5016305;28;20210;-58
2023/03/10 12:04:49;;;;;;;6.57;3.60;;;7.60;99.90;;;;;;4985314;28;20907;-58
2023/03/10 12:07:30;;;;;;;4.87;3.23;;;7.50;99.90;;;;;;5016254;28;20598;-57
2023/03/10 12:10:01;;;;;;;3.93;2.97;;;7.50;99.90;;;;;;4997388;28;20610;-57
2023/03/10 12:12:35;;;;;;;4.43;2.67;;;7.40;99.90;;;;;;4996533;28;20309;-58
2023/03/10 12:15:11;;;;;;;2.97;2.40;;;7.20;99.90;;;;;;5004767;28;20244;-58
2023/03/10 12:17:39;;;;;;;3.47;2.57;;;7.10;99.90;;;;;;5013989;28;20332;-57
2023/03/10 12:20:14;;;;;;;3.40;2.30;;;6.90;99.90;;;;;;5018081;28;20208;-58
2023/03/10 12:23:06;;;;;;;2.90;2.40;;;6.90;99.90;;;;;;5005629;28;20215;-58
2023/03/10 12:25:36;;;;;;;3.03;2.10;;;6.90;99.90;;;;;;4989245;28;20296;-61
2023/03/10 12:28:21;;;;;;;2.23;1.97;;;6.80;99.90;;;;;;5016255;28;20260;-61
2023/03/10 12:30:51;;;;;;;3.13;2.50;;;6.60;99.90;;;;;;5017386;28;20202;-58
2023/03/10 12:33:33;;;;;;;2.50;2.03;;;6.60;99.90;;;;;;5014929;28;20208;-57
2023/03/10 12:36:02;;;;;;;3.10;2.47;;;6.50;99.90;;;;;;5016325;28;20236;-58
2023/03/10 12:38:45;;;;;;;4.07;2.60;;;6.60;99.90;;;;;;5015302;28;20200;-57
2023/03/10 12:41:46;;;;;;;2.27;1.90;;;6.60;99.90;;;;;;5014992;28;20216;-57
2023/03/10 12:44:22;;;;;;;2.07;1.73;;;6.60;99.90;;;;;;5015920;28;20201;-57
2023/03/10 12:47:07;;;;;;;2.17;1.67;;;6.50;99.90;;;;;;5014433;28;20197;-57
2023/03/10 12:49:43;;;;;;;1.97;1.60;;;6.50;99.90;;;;;;5015785;28;20227;-57
2023/03/10 12:52:30;;;;;;;2.33;1.77;;;6.40;99.90;;;;;;5017330;28;20299;-59
2023/03/10 12:55:17;;;;;;;1.23;1.10;;;6.40;99.90;;;;;;5014753;28;20747;-57
2023/03/10 12:57:48;;;;;;;1.50;1.17;;;6.20;99.90;;;;;;5014313;28;20320;-57
2023/03/10 13:00:21;;;;;;;1.60;1.10;;;6.20;99.90;;;;;;4999734;28;20209;-57
2023/03/10 13:03:15;;;;;;;2.23;1.37;;;6.20;99.90;;;;;;5007615;28;20209;-57
2023/03/10 13:05:56;;;;;;;1.40;1.20;;;6.20;99.90;;;;;;5017057;28;20254;-57
2023/03/10 13:08:42;;;;;;;1.20;1.10;;;6.20;99.90;;;;;;5015311;28;20291;-58
2023/03/10 13:11:30;;;;;;;1.60;1.50;;;6.00;99.90;;;;;;5018220;28;20209;-58
2023/03/10 13:14:00;;;;;;;1.83;1.50;;;6.00;99.90;;;;;;5014286;28;20232;-57